sensor_id;sensor_type;location;lat;lon;timestamp;pressure;altitude;pressure_sealevel;temperature;humidity
18022;BME280;9136;48.822;7.966;2023-02-21T00:01:52;100870.03;;;3.28;100.00
18022;BME280;9136;48.822;7.966;2023-02-21T00:04:57;100839.56;;;3.07;100.00
18022;BME280;9136;48.822;7.966;2023-02-21T00:08:02;100859.50;;;3.10;100.00
18022;BME280;9136;48.822;7.966;2023-02-21T00:11:08;100834.31;;;2.98;100.00
18022;BME280;9136;48.822;7.966;2023-02-21T00:14:13;100850.72;;;2.97;100.00
18022;BME280;9136;48.822;7.966;2023-02-21T00:17:20;100845.50;;;2.91;100.00
18022;BME280;9136;48.822;7.966;2023-02-21T00:20:26;100848.97;;;2.90;100.00
18022;BME280;9136;48.822;7.966;2023-02-21T00:23:32;100847.94;;;2.74;100.00
18022;BME280;9136;48.822;7.966;2023-02-21T00:26:38;100849.75;;;2.80;100.00
18022;BME280;9136;48.822;7.966;2023-02-21T00:29:43;100844.56;;;2.80;100.00
18022;BME280;9136;48.822;7.966;2023-02-21T00:32:49;100835.06;;;2.80;100.00
18022;BME280;9136;48.822;7.966;2023-02-21T00:35:54;100820.44;;;2.90;100.00
18022;BME280;9136;48.822;7.966;2023-02-21T00:38:59;100810.00;;;2.88;100.00
18022;BME280;9136;48.822;7.966;2023-02-21T00:42:04;100836.03;;;2.96;100.00
18022;BME280;9136;48.822;7.966;2023-02-21T00:45:10;100815.91;;;2.69;100.00
18022;BME280;9136;48.822;7.966;2023-02-21T00:48:20;100804.56;;;2.59;100.00
18022;BME280;9136;48.822;7.966;2023-02-21T00:51:26;100833.25;;;2.72;100.00
18022;BME280;9136;48.822;7.966;2023-02-21T00:54:31;100805.31;;;2.46;100.00
18022;BME280;9136;48.822;7.966;2023-02-21T00:57:36;100834.81;;;2.56;100.00
18022;BME280;9136;48.822;7.966;2023-02-21T01:00:42;100826.03;;;2.42;100.00
18022;BME280;9136;48.822;7.966;2023-02-21T01:03:48;100829.44;;;2.39;100.00
18022;BME280;9136;48.822;7.966;2023-02-21T01:06:53;100805.16;;;2.29;100.00
18022;BME280;9136;48.822;7.966;2023-02-21T01:09:58;100794.75;;;2.28;100.00
18022;BME280;9136;48.822;7.966;2023-02-21T01:13:04;100812.16;;;2.40;100.00
18022;BME280;9136;48.822;7.966;2023-02-21T01:16:09;100798.22;;;2.28;100.00
18022;BME280;9136;48.822;7.966;2023-02-21T01:19:16;100790.31;;;2.13;100.00
18022;BME280;9136;48.822;7.966;2023-02-21T01:22:22;100812.06;;;2.30;100.00
18022;BME280;9136;48.822;7.966;2023-02-21T01:25:27;100798.09;;;2.16;100.00
18022;BME280;9136;48.822;7.966;2023-02-21T01:28:32;100819.03;;;2.33;100.00
18022;BME280;9136;48.822;7.966;2023-02-21T01:31:37;100780.72;;;2.06;100.00
18022;BME280;9136;48.822;7.966;2023-02-21T01:34:44;100775.53;;;2.05;100.00
18022;BME280;9136;48.822;7.966;2023-02-21T01:37:49;100773.72;;;1.97;100.00
18022;BME280;9136;48.822;7.966;2023-02-21T01:40:54;100786.78;;;2.07;100.00
18022;BME280;9136;48.822;7.966;2023-02-21T01:44:01;100772.94;;;2.03;100.00
18022;BME280;9136;48.822;7.966;2023-02-21T01:47:09;100817.13;;;2.18;100.00
18022;BME280;9136;48.822;7.966;2023-02-21T01:50:20;100788.53;;;2.12;100.00
18022;BME280;9136;48.822;7.966;2023-02-21T01:53:26;100790.22;;;2.06;100.00
18022;BME280;9136;48.822;7.966;2023-02-21T01:56:31;100770.25;;;1.97;100.00
18022;BME280;9136;48.822;7.966;2023-02-21T01:59:37;100803.13;;;2.03;100.00
18022;BME280;9136;48.822;7.966;2023-02-21T02:02:49;100787.47;;;1.92;100.00
18022;BME280;9136;48.822;7.966;2023-02-21T02:05:59;100780.56;;;1.92;100.00
18022;BME280;9136;48.822;7.966;2023-02-21T02:09:15;100785.03;;;2.04;100.00
18022;BME280;9136;48.822;7.966;2023-02-21T02:15:49;100790.22;;;2.04;100.00
18022;BME280;9136;48.822;7.966;2023-02-21T02:18:53;100784.72;;;1.78;100.00
18022;BME280;9136;48.822;7.966;2023-02-21T02:25:29;100793.31;;;2.56;100.00
18022;BME280;9136;48.822;7.966;2023-02-21T02:28:41;100764.72;;;2.48;100.00
18022;BME280;9136;48.822;7.966;2023-02-21T02:31:50;100774.38;;;2.63;100.00
18022;BME280;9136;48.822;7.966;2023-02-21T02:34:49;100786.56;;;2.75;100.00
18022;BME280;9136;48.822;7.966;2023-02-21T02:37:47;100762.22;;;2.59;100.00
18022;BME280;9136;48.822;7.966;2023-02-21T02:40:45;100767.41;;;2.59;100.00
18022;BME280;9136;48.822;7.966;2023-02-21T02:43:37;100754.31;;;2.45;100.00
18022;BME280;9136;48.822;7.966;2023-02-21T02:46:30;100768.16;;;2.44;100.00
18022;BME280;9136;48.822;7.966;2023-02-21T02:49:22;100744.75;;;2.40;100.00
18022;BME280;9136;48.822;7.966;2023-02-21T02:52:12;100774.22;;;2.48;100.00
18022;BME280;9136;48.822;7.966;2023-02-21T02:55:02;100772.50;;;2.48;100.00
18022;BME280;9136;48.822;7.966;2023-02-21T02:57:51;100740.47;;;2.42;100.00
18022;BME280;9136;48.822;7.966;2023-02-21T03:00:41;100768.31;;;2.66;100.00
18022;BME280;9136;48.822;7.966;2023-02-21T03:03:45;100748.38;;;2.60;100.00
18022;BME280;9136;48.822;7.966;2023-02-21T03:06:44;100751.91;;;2.65;100.00
18022;BME280;9136;48.822;7.966;2023-02-21T03:09:43;100739.78;;;2.64;100.00
18022;BME280;9136;48.822;7.966;2023-02-21T03:12:37;100764.94;;;2.73;100.00
18022;BME280;9136;48.822;7.966;2023-02-21T03:15:34;100752.03;;;2.80;100.00
18022;BME280;9136;48.822;7.966;2023-02-21T03:18:28;100750.38;;;2.95;100.00
18022;BME280;9136;48.822;7.966;2023-02-21T03:21:20;100721.81;;;2.92;100.00
18022;BME280;9136;48.822;7.966;2023-02-21T03:24:10;100746.00;;;2.87;100.00
18022;BME280;9136;48.822;7.966;2023-02-21T03:27:05;100760.81;;;3.02;100.00
18022;BME280;9136;48.822;7.966;2023-02-21T03:29:55;100749.44;;;2.86;100.00
18022;BME280;9136;48.822;7.966;2023-02-21T03:32:47;100762.50;;;2.99;100.00
18022;BME280;9136;48.822;7.966;2023-02-21T03:35:36;100759.88;;;2.93;100.00
18022;BME280;9136;48.822;7.966;2023-02-21T03:38:26;100762.50;;;2.99;100.00
18022;BME280;9136;48.822;7.966;2023-02-21T03:41:15;100737.28;;;2.76;100.00
18022;BME280;9136;48.822;7.966;2023-02-21T03:44:04;100745.69;;;2.49;100.00
18022;BME280;9136;48.822;7.966;2023-02-21T03:46:52;100778.53;;;2.47;100.00
18022;BME280;9136;48.822;7.966;2023-02-21T03:49:41;100774.91;;;2.32;100.00
18022;BME280;9136;48.822;7.966;2023-02-21T03:52:29;100764.28;;;2.04;100.00
18022;BME280;9136;48.822;7.966;2023-02-21T03:55:17;100757.19;;;1.88;100.00
18022;BME280;9136;48.822;7.966;2023-02-21T03:58:05;100782.28;;;1.92;100.00
18022;BME280;9136;48.822;7.966;2023-02-21T04:00:55;100783.09;;;1.85;100.00
18022;BME280;9136;48.822;7.966;2023-02-21T04:03:43;100765.63;;;1.71;100.00
18022;BME280;9136;48.822;7.966;2023-02-21T04:06:31;100778.59;;;1.73;100.00
18022;BME280;9136;48.822;7.966;2023-02-21T04:09:19;100752.53;;;1.58;100.00
18022;BME280;9136;48.822;7.966;2023-02-21T04:12:07;100773.22;;;1.56;100.00
18022;BME280;9136;48.822;7.966;2023-02-21T04:14:55;100761.91;;;1.48;100.00
18022;BME280;9136;48.822;7.966;2023-02-21T04:17:45;100774.88;;;1.50;100.00
18022;BME280;9136;48.822;7.966;2023-02-21T04:20:33;100768.72;;;1.41;100.00
18022;BME280;9136;48.822;7.966;2023-02-21T04:23:21;100765.25;;;1.41;100.00
18022;BME280;9136;48.822;7.966;2023-02-21T04:26:10;100766.16;;;1.44;100.00
18022;BME280;9136;48.822;7.966;2023-02-21T04:28:58;100774.91;;;1.53;100.00
18022;BME280;9136;48.822;7.966;2023-02-21T04:31:46;100782.00;;;1.66;100.00
18022;BME280;9136;48.822;7.966;2023-02-21T04:34:37;100783.59;;;1.55;100.00
18022;BME280;9136;48.822;7.966;2023-02-21T04:37:24;100775.84;;;1.58;100.00
18022;BME280;9136;48.822;7.966;2023-02-21T04:40:13;100779.25;;;1.55;100.00
18022;BME280;9136;48.822;7.966;2023-02-21T04:43:01;100772.13;;;1.37;100.00
18022;BME280;9136;48.822;7.966;2023-02-21T04:45:49;100778.19;;;1.41;100.00
18022;BME280;9136;48.822;7.966;2023-02-21T04:48:36;100759.06;;;1.30;100.00
18022;BME280;9136;48.822;7.966;2023-02-21T04:51:26;100743.44;;;1.24;100.00
18022;BME280;9136;48.822;7.966;2023-02-21T04:54:14;100754.78;;;1.32;100.00
18022;BME280;9136;48.822;7.966;2023-02-21T04:57:02;100744.31;;;1.23;100.00
18022;BME280;9136;48.822;7.966;2023-02-21T04:59:55;100758.09;;;1.23;100.00
18022;BME280;9136;48.822;7.966;2023-02-21T05:02:43;100769.41;;;1.27;100.00
18022;BME280;9136;48.822;7.966;2023-02-21T05:05:32;100765.88;;;1.25;100.00
18022;BME280;9136;48.822;7.966;2023-02-21T05:08:21;100764.28;;;1.33;100.00
18022;BME280;9136;48.822;7.966;2023-02-21T05:11:10;100752.31;;;1.39;100.00
18022;BME280;9136;48.822;7.966;2023-02-21T05:13:58;100727.16;;;1.29;100.00
18022;BME280;9136;48.822;7.966;2023-02-21T05:16:46;100739.97;;;1.20;100.00
18022;BME280;9136;48.822;7.966;2023-02-21T05:19:34;100742.59;;;1.25;100.00
18022;BME280;9136;48.822;7.966;2023-02-21T05:22:22;100735.44;;;1.05;100.00
18022;BME280;9136;48.822;7.966;2023-02-21T05:25:15;100725.00;;;0.98;100.00
18022;BME280;9136;48.822;7.966;2023-02-21T05:28:04;100755.34;;;1.09;100.00
18022;BME280;9136;48.822;7.966;2023-02-21T05:30:52;100727.63;;;1.02;100.00
18022;BME280;9136;48.822;7.966;2023-02-21T05:33:40;100766.81;;;1.28;100.00
18022;BME280;9136;48.822;7.966;2023-02-21T05:36:27;100748.84;;;1.39;100.00
18022;BME280;9136;48.822;7.966;2023-02-21T05:39:15;100715.28;;;1.45;100.00
18022;BME280;9136;48.822;7.966;2023-02-21T05:42:05;100729.13;;;1.49;100.00
18022;BME280;9136;48.822;7.966;2023-02-21T05:44:53;100743.03;;;1.57;100.00
18022;BME280;9136;48.822;7.966;2023-02-21T05:47:41;100732.44;;;1.38;100.00
18022;BME280;9136;48.822;7.966;2023-02-21T05:50:29;100736.50;;;1.20;100.00
18022;BME280;9136;48.822;7.966;2023-02-21T05:53:17;100719.91;;;1.05;100.00
18022;BME280;9136;48.822;7.966;2023-02-21T05:56:05;100721.50;;;0.96;100.00
18022;BME280;9136;48.822;7.966;2023-02-21T05:58:55;100742.25;;;0.97;100.00
18022;BME280;9136;48.822;7.966;2023-02-21T06:01:43;100740.44;;;0.93;100.00
18022;BME280;9136;48.822;7.966;2023-02-21T06:04:31;100744.97;;;1.06;100.00
18022;BME280;9136;48.822;7.966;2023-02-21T06:07:19;100755.25;;;1.05;100.00
18022;BME280;9136;48.822;7.966;2023-02-21T06:10:07;100750.03;;;1.00;100.00
18022;BME280;9136;48.822;7.966;2023-02-21T06:12:55;100731.75;;;0.88;100.00
18022;BME280;9136;48.822;7.966;2023-02-21T06:15:44;100735.16;;;0.85;100.00
18022;BME280;9136;48.822;7.966;2023-02-21T06:18:32;100741.28;;;0.92;100.00
18022;BME280;9136;48.822;7.966;2023-02-21T06:21:23;100738.69;;;0.92;100.00
18022;BME280;9136;48.822;7.966;2023-02-21T06:24:11;100728.16;;;0.78;100.00
18022;BME280;9136;48.822;7.966;2023-02-21T06:26:59;100733.22;;;0.72;100.00
18022;BME280;9136;48.822;7.966;2023-02-21T06:29:47;100742.03;;;0.85;100.00
18022;BME280;9136;48.822;7.966;2023-02-21T06:32:36;100756.88;;;0.97;100.00
18022;BME280;9136;48.822;7.966;2023-02-21T06:35:26;100741.16;;;0.83;100.00
18022;BME280;9136;48.822;7.966;2023-02-21T06:38:14;100769.78;;;0.95;100.00
18022;BME280;9136;48.822;7.966;2023-02-21T06:41:04;100753.34;;;0.90;100.00
18022;BME280;9136;48.822;7.966;2023-02-21T06:43:53;100770.56;;;0.88;100.00
18022;BME280;9136;48.822;7.966;2023-02-21T06:46:42;100756.69;;;0.84;100.00
18022;BME280;9136;48.822;7.966;2023-02-21T06:49:35;100750.66;;;0.85;100.00
18022;BME280;9136;48.822;7.966;2023-02-21T06:52:23;100780.25;;;1.04;100.00
18022;BME280;9136;48.822;7.966;2023-02-21T06:55:11;100745.66;;;0.96;100.00
18022;BME280;9136;48.822;7.966;2023-02-21T06:57:59;100761.44;;;1.14;100.00
18022;BME280;9136;48.822;7.966;2023-02-21T07:00:55;100759.69;;;1.13;100.00
18022;BME280;9136;48.822;7.966;2023-02-21T07:03:51;100758.00;;;1.15;100.00
18022;BME280;9136;48.822;7.966;2023-02-21T07:06:40;100764.09;;;1.19;100.00
18022;BME280;9136;48.822;7.966;2023-02-21T07:09:28;100757.44;;;1.36;100.00
18022;BME280;9136;48.822;7.966;2023-02-21T07:12:16;100750.59;;;1.43;100.00
18022;BME280;9136;48.822;7.966;2023-02-21T07:15:04;100762.03;;;1.57;100.00
18022;BME280;9136;48.822;7.966;2023-02-21T07:17:53;100762.16;;;1.69;100.00
18022;BME280;9136;48.822;7.966;2023-02-21T07:20:40;100758.97;;;1.92;100.00
18022;BME280;9136;48.822;7.966;2023-02-21T07:23:30;100750.38;;;1.94;100.00
18022;BME280;9136;48.822;7.966;2023-02-21T07:26:19;100770.41;;;2.11;100.00
18022;BME280;9136;48.822;7.966;2023-02-21T07:29:06;100738.28;;;1.95;100.00
18022;BME280;9136;48.822;7.966;2023-02-21T07:31:54;100761.75;;;2.12;100.00
18022;BME280;9136;48.822;7.966;2023-02-21T07:34:43;100758.38;;;2.19;100.00
18022;BME280;9136;48.822;7.966;2023-02-21T07:37:31;100755.88;;;2.28;100.00
18022;BME280;9136;48.822;7.966;2023-02-21T07:40:21;100762.09;;;2.47;100.00
18022;BME280;9136;48.822;7.966;2023-02-21T07:43:09;100777.84;;;2.65;100.00
18022;BME280;9136;48.822;7.966;2023-02-21T07:45:57;100756.22;;;2.63;100.00
18022;BME280;9136;48.822;7.966;2023-02-21T07:48:45;100747.72;;;2.84;100.00
18022;BME280;9136;48.822;7.966;2023-02-21T07:51:33;100759.03;;;2.94;100.00
18022;BME280;9136;48.822;7.966;2023-02-21T07:54:21;100766.06;;;3.11;100.00
18022;BME280;9136;48.822;7.966;2023-02-21T07:57:11;100776.50;;;3.21;100.00
18022;BME280;9136;48.822;7.966;2023-02-21T07:59:58;100754.88;;;3.23;100.00
18022;BME280;9136;48.822;7.966;2023-02-21T08:02:46;100762.72;;;3.35;100.00
18022;BME280;9136;48.822;7.966;2023-02-21T08:05:35;100737.59;;;3.27;100.00
18022;BME280;9136;48.822;7.966;2023-02-21T08:08:22;100765.41;;;3.52;100.00
18022;BME280;9136;48.822;7.966;2023-02-21T08:11:10;100757.72;;;3.73;100.00
18022;BME280;9136;48.822;7.966;2023-02-21T08:14:00;100739.53;;;3.72;100.00
18022;BME280;9136;48.822;7.966;2023-02-21T08:16:48;100761.25;;;3.95;100.00
18022;BME280;9136;48.822;7.966;2023-02-21T08:19:35;100776.91;;;4.21;100.00
18022;BME280;9136;48.822;7.966;2023-02-21T08:22:23;100761.31;;;4.23;100.00
18022;BME280;9136;48.822;7.966;2023-02-21T08:25:12;100737.91;;;4.32;100.00
18022;BME280;9136;48.822;7.966;2023-02-21T08:28:00;100781.31;;;4.67;100.00
18022;BME280;9136;48.822;7.966;2023-02-21T08:30:50;100780.44;;;4.80;100.00
18022;BME280;9136;48.822;7.966;2023-02-21T08:33:39;100725.81;;;4.57;100.00
18022;BME280;9136;48.822;7.966;2023-02-21T08:36:30;100746.63;;;4.65;100.00
18022;BME280;9136;48.822;7.966;2023-02-21T08:39:18;100772.66;;;4.83;100.00
18022;BME280;9136;48.822;7.966;2023-02-21T08:42:05;100743.13;;;4.78;100.00
18022;BME280;9136;48.822;7.966;2023-02-21T08:44:54;100751.78;;;5.00;100.00
18022;BME280;9136;48.822;7.966;2023-02-21T08:47:44;100751.75;;;5.10;100.00
18022;BME280;9136;48.822;7.966;2023-02-21T08:50:32;100735.31;;;5.05;100.00
18022;BME280;9136;48.822;7.966;2023-02-21T08:53:19;100736.97;;;5.20;100.00
18022;BME280;9136;48.822;7.966;2023-02-21T08:56:07;100743.88;;;5.42;100.00
18022;BME280;9136;48.822;7.966;2023-02-21T08:58:56;100751.69;;;5.44;100.00
18022;BME280;9136;48.822;7.966;2023-02-21T09:01:44;100744.72;;;5.51;100.00
18022;BME280;9136;48.822;7.966;2023-02-21T09:04:35;100751.59;;;5.65;100.00
18022;BME280;9136;48.822;7.966;2023-02-21T09:07:22;100745.47;;;5.82;100.00
18022;BME280;9136;48.822;7.966;2023-02-21T09:10:10;100743.66;;;5.96;100.00
18022;BME280;9136;48.822;7.966;2023-02-21T09:12:58;100747.97;;;6.03;100.00
18022;BME280;9136;48.822;7.966;2023-02-21T09:15:46;100724.56;;;5.94;100.00
18022;BME280;9136;48.822;7.966;2023-02-21T09:18:36;100735.78;;;6.10;100.00
18022;BME280;9136;48.822;7.966;2023-02-21T09:21:26;100759.94;;;6.35;100.00
18022;BME280;9136;48.822;7.966;2023-02-21T09:24:14;100751.22;;;6.40;100.00
18022;BME280;9136;48.822;7.966;2023-02-21T09:27:01;100729.44;;;6.44;100.00
18022;BME280;9136;48.822;7.966;2023-02-21T09:29:49;100729.31;;;6.61;100.00
18022;BME280;9136;48.822;7.966;2023-02-21T09:32:38;100740.41;;;6.83;100.00
18022;BME280;9136;48.822;7.966;2023-02-21T09:35:26;100740.28;;;7.00;100.00
18022;BME280;9136;48.822;7.966;2023-02-21T09:38:17;100740.97;;;7.14;100.00
18022;BME280;9136;48.822;7.966;2023-02-21T09:41:06;100745.19;;;7.29;100.00
18022;BME280;9136;48.822;7.966;2023-02-21T09:43:55;100740.78;;;7.35;100.00
18022;BME280;9136;48.822;7.966;2023-02-21T09:46:45;100711.97;;;7.38;100.00
18022;BME280;9136;48.822;7.966;2023-02-21T09:49:35;100725.00;;;7.44;100.00
18022;BME280;9136;48.822;7.966;2023-02-21T09:52:30;100720.47;;;7.57;100.00
18022;BME280;9136;48.822;7.966;2023-02-21T09:55:27;100739.34;;;7.82;100.00
18022;BME280;9136;48.822;7.966;2023-02-21T09:58:17;100704.38;;;7.88;100.00
18022;BME280;9136;48.822;7.966;2023-02-21T10:01:13;100700.56;;;8.10;100.00
18022;BME280;9136;48.822;7.966;2023-02-21T10:04:13;100698.81;;;8.12;100.00
18022;BME280;9136;48.822;7.966;2023-02-21T10:07:10;100702.88;;;8.28;100.00
18022;BME280;9136;48.822;7.966;2023-02-21T10:10:04;100711.47;;;8.41;100.00
18022;BME280;9136;48.822;7.966;2023-02-21T10:13:00;100693.06;;;8.46;100.00
18022;BME280;9136;48.822;7.966;2023-02-21T10:15:54;100689.06;;;8.74;100.00
18022;BME280;9136;48.822;7.966;2023-02-21T10:18:54;100686.31;;;8.82;100.00
18022;BME280;9136;48.822;7.966;2023-02-21T10:21:47;100678.41;;;8.85;100.00
18022;BME280;9136;48.822;7.966;2023-02-21T10:24:36;100692.84;;;9.07;100.00
18022;BME280;9136;48.822;7.966;2023-02-21T10:27:26;100704.56;;;9.33;100.00
18022;BME280;9136;48.822;7.966;2023-02-21T10:30:25;100693.81;;;9.46;100.00
18022;BME280;9136;48.822;7.966;2023-02-21T10:33:14;100690.16;;;9.54;100.00
18022;BME280;9136;48.822;7.966;2023-02-21T10:36:09;100667.41;;;9.54;100.00
18022;BME280;9136;48.822;7.966;2023-02-21T10:39:03;100696.38;;;9.90;100.00
18022;BME280;9136;48.822;7.966;2023-02-21T10:41:53;100677.91;;;9.94;100.00
18022;BME280;9136;48.822;7.966;2023-02-21T10:44:43;100684.78;;;10.00;100.00
18022;BME280;9136;48.822;7.966;2023-02-21T10:47:47;100675.75;;;10.12;100.00
18022;BME280;9136;48.822;7.966;2023-02-21T10:50:43;100683.22;;;10.66;100.00
18022;BME280;9136;48.822;7.966;2023-02-21T10:53:37;100683.97;;;11.34;100.00
18022;BME280;9136;48.822;7.966;2023-02-21T10:56:27;100672.06;;;12.38;82.38
18022;BME280;9136;48.822;7.966;2023-02-21T10:59:21;100686.16;;;14.07;66.22
18022;BME280;9136;48.822;7.966;2023-02-21T11:02:37;100677.97;;;15.38;53.85
18022;BME280;9136;48.822;7.966;2023-02-21T11:05:27;100679.81;;;16.30;49.41
18022;BME280;9136;48.822;7.966;2023-02-21T11:08:33;100674.53;;;18.30;44.29
18022;BME280;9136;48.822;7.966;2023-02-21T11:11:33;100666.91;;;18.08;44.03
18022;BME280;9136;48.822;7.966;2023-02-21T11:14:24;100651.72;;;17.94;41.91
18022;BME280;9136;48.822;7.966;2023-02-21T11:17:15;100640.13;;;20.14;39.82
18022;BME280;9136;48.822;7.966;2023-02-21T11:20:15;100640.00;;;20.42;37.39
18022;BME280;9136;48.822;7.966;2023-02-21T11:23:04;100640.97;;;19.87;38.63
18022;BME280;9136;48.822;7.966;2023-02-21T11:26:06;100626.53;;;19.77;37.61
18022;BME280;9136;48.822;7.966;2023-02-21T11:29:06;100631.94;;;21.71;35.72
18022;BME280;9136;48.822;7.966;2023-02-21T11:32:11;100617.44;;;23.49;33.70
18022;BME280;9136;48.822;7.966;2023-02-21T11:35:01;100614.03;;;23.25;33.46
18022;BME280;9136;48.822;7.966;2023-02-21T11:37:55;100617.13;;;22.74;32.86
18022;BME280;9136;48.822;7.966;2023-02-21T11:40:44;100595.66;;;24.08;31.11
18022;BME280;9136;48.822;7.966;2023-02-21T11:43:34;100602.59;;;23.34;32.09
18022;BME280;9136;48.822;7.966;2023-02-21T11:46:33;100578.81;;;23.52;31.45
18022;BME280;9136;48.822;7.966;2023-02-21T11:49:27;100578.81;;;25.31;29.60
18022;BME280;9136;48.822;7.966;2023-02-21T11:52:21;100581.84;;;23.69;31.14
18022;BME280;9136;48.822;7.966;2023-02-21T11:55:16;100580.91;;;24.76;30.01
18022;BME280;9136;48.822;7.966;2023-02-21T11:58:11;100582.22;;;23.42;31.24
18022;BME280;9136;48.822;7.966;2023-02-21T12:01:10;100572.16;;;26.34;28.66
18022;BME280;9136;48.822;7.966;2023-02-21T12:04:09;100576.16;;;26.49;28.49
18022;BME280;9136;48.822;7.966;2023-02-21T12:07:06;100556.31;;;26.50;26.55
18022;BME280;9136;48.822;7.966;2023-02-21T12:10:01;100544.34;;;27.19;27.43
18022;BME280;9136;48.822;7.966;2023-02-21T12:12:58;100564.81;;;28.56;25.57
18022;BME280;9136;48.822;7.966;2023-02-21T12:15:55;100535.84;;;27.41;28.24
18022;BME280;9136;48.822;7.966;2023-02-21T12:18:57;100528.44;;;27.71;26.81
18022;BME280;9136;48.822;7.966;2023-02-21T12:21:58;100525.25;;;25.19;29.93
18022;BME280;9136;48.822;7.966;2023-02-21T12:24:58;100526.38;;;23.70;32.41
18022;BME280;9136;48.822;7.966;2023-02-21T12:27:54;100514.06;;;26.12;29.45
18022;BME280;9136;48.822;7.966;2023-02-21T12:30:54;100522.31;;;25.91;27.07
18022;BME280;9136;48.822;7.966;2023-02-21T12:33:54;100497.19;;;27.23;27.29
18022;BME280;9136;48.822;7.966;2023-02-21T12:36:58;100486.00;;;27.18;27.37
18022;BME280;9136;48.822;7.966;2023-02-21T12:40:02;100471.56;;;27.54;26.87
18022;BME280;9136;48.822;7.966;2023-02-21T12:46:25;100463.59;;;26.80;26.60
18022;BME280;9136;48.822;7.966;2023-02-21T12:49:20;100442.56;;;26.56;28.47
18022;BME280;9136;48.822;7.966;2023-02-21T12:52:14;100454.84;;;27.51;26.55
18022;BME280;9136;48.822;7.966;2023-02-21T12:55:05;100441.63;;;29.21;23.84
18022;BME280;9136;48.822;7.966;2023-02-21T12:57:58;100449.66;;;28.37;24.00
18022;BME280;9136;48.822;7.966;2023-02-21T13:00:51;100430.94;;;27.10;26.07
18022;BME280;9136;48.822;7.966;2023-02-21T13:03:52;100437.22;;;26.46;25.89
18022;BME280;9136;48.822;7.966;2023-02-21T13:06:46;100414.75;;;26.93;25.57
18022;BME280;9136;48.822;7.966;2023-02-21T13:09:37;100430.56;;;28.64;23.20
18022;BME280;9136;48.822;7.966;2023-02-21T13:12:30;100413.66;;;29.04;23.19
18022;BME280;9136;48.822;7.966;2023-02-21T13:15:23;100417.97;;;26.96;26.36
18022;BME280;9136;48.822;7.966;2023-02-21T13:18:17;100416.19;;;28.64;25.09
18022;BME280;9136;48.822;7.966;2023-02-21T13:21:30;100391.47;;;26.64;26.78
18022;BME280;9136;48.822;7.966;2023-02-21T13:24:40;100389.28;;;23.73;31.15
18022;BME280;9136;48.822;7.966;2023-02-21T13:27:55;100379.84;;;22.26;34.37
18022;BME280;9136;48.822;7.966;2023-02-21T13:30:49;100382.78;;;20.94;37.16
18022;BME280;9136;48.822;7.966;2023-02-21T13:33:40;100375.63;;;20.58;37.07
18022;BME280;9136;48.822;7.966;2023-02-21T13:36:39;100375.34;;;20.74;36.38
18022;BME280;9136;48.822;7.966;2023-02-21T13:39:29;100366.38;;;21.35;33.33
18022;BME280;9136;48.822;7.966;2023-02-21T13:42:23;100353.34;;;20.46;33.93
18022;BME280;9136;48.822;7.966;2023-02-21T13:45:15;100341.78;;;20.33;33.84
18022;BME280;9136;48.822;7.966;2023-02-21T13:48:19;100360.38;;;19.71;35.31
18022;BME280;9136;48.822;7.966;2023-02-21T13:51:45;100349.00;;;19.02;37.74
18022;BME280;9136;48.822;7.966;2023-02-21T13:54:33;100352.84;;;18.84;38.21
18022;BME280;9136;48.822;7.966;2023-02-21T13:57:31;100341.50;;;18.11;40.59
18022;BME280;9136;48.822;7.966;2023-02-21T14:00:46;100314.63;;;17.72;44.09
18022;BME280;9136;48.822;7.966;2023-02-21T14:03:34;100330.38;;;17.76;45.34
18022;BME280;9136;48.822;7.966;2023-02-21T14:06:35;100325.75;;;17.79;42.84
18022;BME280;9136;48.822;7.966;2023-02-21T14:09:25;100313.44;;;17.48;44.21
18022;BME280;9136;48.822;7.966;2023-02-21T14:12:15;100301.56;;;17.54;41.85
18022;BME280;9136;48.822;7.966;2023-02-21T14:15:04;100290.97;;;17.68;45.68
18022;BME280;9136;48.822;7.966;2023-02-21T14:17:53;100314.28;;;17.63;45.16
18022;BME280;9136;48.822;7.966;2023-02-21T14:20:41;100293.59;;;17.54;45.03
18022;BME280;9136;48.822;7.966;2023-02-21T14:23:39;100295.59;;;17.50;44.94
18022;BME280;9136;48.822;7.966;2023-02-21T14:26:42;100297.03;;;17.26;44.62
18022;BME280;9136;48.822;7.966;2023-02-21T14:29:34;100308.34;;;17.29;44.10
18022;BME280;9136;48.822;7.966;2023-02-21T14:32:27;100288.13;;;17.27;44.39
18022;BME280;9136;48.822;7.966;2023-02-21T14:35:28;100269.63;;;16.95;45.95
18022;BME280;9136;48.822;7.966;2023-02-21T14:38:22;100269.91;;;16.91;46.57
18022;BME280;9136;48.822;7.966;2023-02-21T14:41:25;100270.28;;;16.84;44.59
18022;BME280;9136;48.822;7.966;2023-02-21T14:44:25;100272.28;;;16.95;44.66
18022;BME280;9136;48.822;7.966;2023-02-21T14:47:51;100274.13;;;16.79;45.57
18022;BME280;9136;48.822;7.966;2023-02-21T14:50:55;100283.94;;;16.93;46.10
18022;BME280;9136;48.822;7.966;2023-02-21T14:57:31;100244.88;;;16.80;45.68
18022;BME280;9136;48.822;7.966;2023-02-21T15:00:27;100258.91;;;16.82;45.58
18022;BME280;9136;48.822;7.966;2023-02-21T15:03:21;100258.28;;;16.77;45.75
18022;BME280;9136;48.822;7.966;2023-02-21T15:06:12;100234.69;;;16.57;45.60
18022;BME280;9136;48.822;7.966;2023-02-21T15:09:11;100251.97;;;16.64;44.99
18022;BME280;9136;48.822;7.966;2023-02-21T15:12:02;100241.97;;;16.53;46.48
18022;BME280;9136;48.822;7.966;2023-02-21T15:14:52;100256.41;;;16.64;43.85
18022;BME280;9136;48.822;7.966;2023-02-21T15:17:44;100257.94;;;16.68;44.46
18022;BME280;9136;48.822;7.966;2023-02-21T15:20:41;100217.78;;;16.44;44.54
18022;BME280;9136;48.822;7.966;2023-02-21T15:23:29;100238.13;;;16.43;47.27
18022;BME280;9136;48.822;7.966;2023-02-21T15:26:20;100249.78;;;16.41;47.45
18022;BME280;9136;48.822;7.966;2023-02-21T15:29:10;100224.09;;;16.25;48.46
18022;BME280;9136;48.822;7.966;2023-02-21T15:31:58;100232.16;;;16.24;49.47
18022;BME280;9136;48.822;7.966;2023-02-21T15:34:52;100235.22;;;16.32;46.55
18022;BME280;9136;48.822;7.966;2023-02-21T15:37:42;100256.44;;;16.32;47.64